Time,TemperatureF,DewpointF,PressureIn,WindDirection,WindDirectionDegrees,WindSpeedMPH,WindSpeedGustMPH,Humidity,HourlyPrecipIn,Conditions,Clouds,dailyrainin,SoftwareType,DateUTC
2013-07-17 00:01:00,63.0,62.0,30.40,North,359,0.0,0.0,95,0.00,,,-99.99,,2013-07-17 04:01:00,
2013-07-17 00:11:00,63.0,61.0,30.41,North,359,0.0,0.0,94,0.00,,,-99.99,,2013-07-17 04:11:00,
2013-07-17 00:22:00,63.0,61.0,30.41,North,359,0.0,0.0,94,0.00,,,-99.99,,2013-07-17 04:22:00,
2013-07-17 00:32:00,63.0,61.0,30.40,North,359,0.0,0.0,94,0.00,,,-99.99,,2013-07-17 04:32:00,
2013-07-17 00:43:00,63.0,61.0,30.41,North,359,0.0,0.0,94,0.00,,,-99.99,,2013-07-17 04:43:00,
2013-07-17 00:53:00,63.0,61.0,30.41,North,359,0.0,0.0,94,0.00,,,-99.99,,2013-07-17 04:53:00,
2013-07-17 01:02:00,63.0,61.0,30.41,North,359,0.0,0.0,94,0.00,,,-99.99,,2013-07-17 05:02:00,
2013-07-17 01:11:00,63.0,61.0,30.41,North,359,0.0,0.0,94,0.00,,,-99.99,,2013-07-17 05:11:00,
2013-07-17 01:22:00,63.0,61.0,30.40,North,359,0.0,0.0,94,0.00,,,-99.99,,2013-07-17 05:22:00,
2013-07-17 01:32:00,63.0,61.0,30.40,North,359,0.0,0.0,94,0.00,,,-99.99,,2013-07-17 05:32:00,
2013-07-17 01:43:00,63.0,61.0,30.40,North,359,0.0,0.0,94,0.00,,,-99.99,,2013-07-17 05:43:00,
2013-07-17 01:52:00,63.0,61.0,30.40,North,359,0.0,0.0,94,0.00,,,-99.99,,2013-07-17 05:52:00,
2013-07-17 02:01:00,63.0,61.0,30.40,North,359,0.0,0.0,94,0.00,,,-99.99,,2013-07-17 06:01:00,
2013-07-17 02:11:00,63.0,61.0,30.39,North,359,0.0,0.0,94,0.00,,,-99.99,,2013-07-17 06:11:00,
2013-07-17 02:32:00,63.0,61.0,30.38,North,359,0.0,0.0,94,0.00,,,-99.99,,2013-07-17 06:32:00,
2013-07-17 02:52:00,63.0,61.0,30.37,North,359,0.0,0.0,94,0.00,,,-99.99,,2013-07-17 06:52:00,
2013-07-17 03:01:00,63.0,61.0,30.37,North,359,0.0,0.0,94,0.00,,,-99.99,,2013-07-17 07:01:00,
2013-07-17 03:11:00,63.0,61.0,30.37,North,359,0.0,0.0,94,0.00,,,-99.99,,2013-07-17 07:11:00,
2013-07-17 03:22:00,63.0,61.0,30.37,North,359,0.0,0.0,94,0.00,,,-99.99,,2013-07-17 07:22:00,
2013-07-17 04:43:00,63.0,60.0,30.37,North,359,0.0,0.0,91,0.00,,,-99.99,,2013-07-17 08:43:00,
2013-07-17 04:53:00,63.0,60.0,30.38,North,359,0.0,0.0,91,0.00,,,-99.99,,2013-07-17 08:53:00,
2013-07-17 05:02:00,63.0,60.0,30.38,North,359,0.0,0.0,91,0.00,,,-99.99,,2013-07-17 09:02:00,
2013-07-17 05:12:00,63.0,60.0,30.38,North,359,0.0,0.0,91,0.00,,,-99.99,,2013-07-17 09:12:00,
2013-07-17 05:22:00,63.0,60.0,30.38,North,359,0.0,0.0,91,0.00,,,-99.99,,2013-07-17 09:22:00,
2013-07-17 05:32:00,62.0,60.0,30.38,North,359,0.0,0.0,92,0.00,,,-99.99,,2013-07-17 09:32:00,
2013-07-17 05:43:00,62.0,60.0,30.38,North,359,0.0,0.0,92,0.00,,,-99.99,,2013-07-17 09:43:00,
2013-07-17 05:52:00,62.0,60.0,30.38,North,359,0.0,0.0,92,0.00,,,-99.99,,2013-07-17 09:52:00,
2013-07-17 06:01:00,62.0,60.0,30.38,North,359,0.0,0.0,92,0.00,,,-99.99,,2013-07-17 10:01:00,
2013-07-17 06:11:00,62.0,60.0,30.38,North,359,0.0,0.0,92,0.00,,,-99.99,,2013-07-17 10:11:00,
2013-07-17 07:32:00,62.0,61.0,30.40,North,359,0.0,0.0,96,0.00,,,-99.99,,2013-07-17 11:32:00,
2013-07-17 07:42:00,62.0,61.0,30.40,North,359,0.0,0.0,96,0.00,,,-99.99,,2013-07-17 11:42:00,
2013-07-17 07:52:00,62.0,61.0,30.40,North,359,0.0,0.0,96,0.00,,,-99.99,,2013-07-17 11:52:00,
2013-07-17 08:01:00,62.0,61.0,30.40,North,359,0.0,0.0,96,0.00,,,-99.99,,2013-07-17 12:01:00,
2013-07-17 10:43:00,76.0,71.0,30.41,North,359,0.0,0.0,84,0.00,,,-99.99,,2013-07-17 14:43:00,
2013-07-17 10:52:00,76.0,71.0,30.41,North,359,0.0,0.0,84,0.00,,,-99.99,,2013-07-17 14:52:00,
2013-07-17 11:12:00,77.0,71.0,30.41,North,359,0.0,0.0,82,0.00,,,-99.99,,2013-07-17 15:12:00,
2013-07-17 11:32:00,78.0,72.0,30.41,North,359,0.0,0.0,83,0.00,,,-99.99,,2013-07-17 15:32:00,
2013-07-17 11:52:00,78.0,72.0,30.42,North,359,0.0,0.0,81,0.00,,,-99.99,,2013-07-17 15:52:00,
2013-07-17 12:02:00,78.0,72.0,30.41,North,359,0.0,0.0,83,0.00,,,-99.99,,2013-07-17 16:02:00,
2013-07-17 12:22:00,76.0,71.0,30.41,North,359,0.0,0.0,84,0.00,,,-99.99,,2013-07-17 16:22:00,
2013-07-17 12:33:00,76.0,71.0,30.41,North,359,0.0,0.0,84,0.00,,,-99.99,,2013-07-17 16:33:00,
2013-07-17 12:42:00,78.0,71.0,30.40,North,359,0.0,0.0,78,0.00,,,-99.99,,2013-07-17 16:42:00,
2013-07-17 12:52:00,78.0,71.0,30.40,North,359,0.0,0.0,78,0.00,,,-99.99,,2013-07-17 16:52:00,
2013-07-17 13:02:00,78.0,71.0,30.41,North,359,0.0,0.0,80,0.00,,,-99.99,,2013-07-17 17:02:00,
2013-07-17 13:11:00,76.0,70.0,30.40,North,359,0.0,0.0,81,0.00,,,-99.99,,2013-07-17 17:11:00,
2013-07-17 13:22:00,76.0,70.0,30.40,North,359,0.0,0.0,81,0.00,,,-99.99,,2013-07-17 17:22:00,
2013-07-17 13:32:00,76.0,70.0,30.40,North,359,0.0,0.0,81,0.00,,,-99.99,,2013-07-17 17:32:00,
2013-07-17 13:43:00,76.0,70.0,30.40,North,359,0.0,0.0,81,0.00,,,-99.99,,2013-07-17 17:43:00,
2013-07-17 14:01:00,76.0,71.0,30.39,North,359,0.0,0.0,85,0.00,,,-99.99,,2013-07-17 18:01:00,
2013-07-17 14:11:00,77.0,71.0,30.37,North,359,0.0,0.0,83,0.00,,,-99.99,,2013-07-17 18:11:00,
2013-07-17 14:22:00,77.0,71.0,30.37,North,359,0.0,0.0,83,0.00,,,-99.99,,2013-07-17 18:22:00,
2013-07-17 14:43:00,74.0,71.0,30.36,North,359,0.0,0.0,89,0.00,,,-99.99,,2013-07-17 18:43:00,
2013-07-17 14:52:00,74.0,71.0,30.36,North,359,0.0,0.0,89,0.00,,,-99.99,,2013-07-17 18:52:00,
2013-07-17 15:01:00,74.0,71.0,30.36,North,359,0.0,0.0,89,0.00,,,-99.99,,2013-07-17 19:01:00,
2013-07-17 15:11:00,69.0,68.0,30.36,North,359,0.0,0.0,96,0.06,,,-99.99,,2013-07-17 19:11:00,
2013-07-17 15:22:00,69.0,68.0,30.36,North,359,0.0,0.0,96,0.06,,,-99.99,,2013-07-17 19:22:00,
2013-07-17 15:32:00,69.0,68.0,30.36,North,359,0.0,0.0,96,0.06,,,-99.99,,2013-07-17 19:32:00,
2013-07-17 15:43:00,69.0,68.0,30.36,North,359,0.0,0.0,96,0.06,,,-99.99,,2013-07-17 19:43:00,
2013-07-17 16:11:00,65.0,64.0,30.35,North,359,0.0,0.0,98,0.96,,,-99.99,,2013-07-17 20:11:00,
2013-07-17 16:22:00,65.0,64.0,30.35,North,359,0.0,0.0,98,0.96,,,-99.99,,2013-07-17 20:22:00,
2013-07-17 16:33:00,65.0,64.0,30.35,North,359,0.0,0.0,98,0.96,,,-99.99,,2013-07-17 20:33:00,
2013-07-17 16:43:00,64.0,63.0,30.36,North,359,0.0,0.0,98,0.70,,,-99.99,,2013-07-17 20:43:00,
2013-07-17 17:12:00,60.0,59.0,30.34,North,359,0.0,0.0,98,0.87,,,-99.99,,2013-07-17 21:12:00,
2013-07-17 17:22:00,60.0,59.0,30.34,North,359,0.0,0.0,98,0.87,,,-99.99,,2013-07-17 21:22:00,
2013-07-17 17:32:00,60.0,59.0,30.34,North,359,0.0,0.0,98,0.77,,,-99.99,,2013-07-17 21:32:00,
2013-07-17 17:42:00,61.0,60.0,30.34,North,359,0.0,0.0,97,0.18,,,-99.99,,2013-07-17 21:42:00,
2013-07-17 18:01:00,62.0,61.0,30.33,North,359,0.0,0.0,97,0.06,,,-99.99,,2013-07-17 22:01:00,
2013-07-17 18:22:00,63.0,62.0,30.34,North,359,0.0,0.0,96,0.01,,,-99.99,,2013-07-17 22:22:00,
2013-07-17 18:43:00,64.0,63.0,30.32,North,359,0.0,0.0,96,0.01,,,-99.99,,2013-07-17 22:43:00,
2013-07-17 18:53:00,64.0,63.0,30.32,North,359,0.0,0.0,96,0.01,,,-99.99,,2013-07-17 22:53:00,
2013-07-17 19:02:00,63.0,62.0,30.34,North,359,0.0,0.0,96,0.01,,,-99.99,,2013-07-17 23:02:00,
2013-07-17 19:11:00,63.0,62.0,30.34,North,359,0.0,0.0,96,0.01,,,-99.99,,2013-07-17 23:11:00,
2013-07-17 19:32:00,63.0,62.0,30.32,North,359,0.0,0.0,96,0.01,,,-99.99,,2013-07-17 23:32:00,
2013-07-17 19:52:00,62.0,61.0,30.33,North,359,0.0,0.0,96,0.00,,,-99.99,,2013-07-17 23:52:00,
2013-07-17 20:01:00,62.0,61.0,30.34,North,359,0.0,0.0,96,0.00,,,-99.99,,2013-07-18 00:01:00,
2013-07-17 20:11:00,62.0,61.0,30.34,North,359,0.0,0.0,96,0.00,,,-99.99,,2013-07-18 00:11:00,
2013-07-17 20:22:00,62.0,61.0,30.34,North,359,0.0,0.0,96,0.00,,,-99.99,,2013-07-18 00:22:00,
2013-07-17 20:33:00,62.0,61.0,30.33,North,359,0.0,0.0,96,0.00,,,-99.99,,2013-07-18 00:33:00,
2013-07-17 20:43:00,61.0,60.0,30.35,North,359,0.0,0.0,96,0.00,,,-99.99,,2013-07-18 00:43:00,
2013-07-17 21:01:00,61.0,60.0,30.34,North,359,0.0,0.0,96,0.00,,,-99.99,,2013-07-18 01:01:00,
2013-07-17 21:11:00,61.0,60.0,30.34,North,359,0.0,0.0,96,0.00,,,-99.99,,2013-07-18 01:11:00,
2013-07-17 21:22:00,61.0,60.0,30.34,North,359,0.0,0.0,96,0.00,,,-99.99,,2013-07-18 01:22:00,
2013-07-17 21:32:00,61.0,60.0,30.34,North,359,0.0,0.0,96,0.00,,,-99.99,,2013-07-18 01:32:00,